Latest Weather Observations for Grafton Airport

IDN60801

Issued at 11:35 pm EST Tuesday 30 September 2014 (issued every 30 minutes, with the page automatically refreshed every 10 minutes)

About weather observations | Map of weather stations | Latest weather observations for NSW | Other Formats
Station Details ID: 058161 Name: GRAFTON AIRPORT AWS Lat: -29.76 Lon: 153.03 Height: 25.09 m
Data from the previous 72 hours. | See also: Recent months for locations in New South Wales
Date/Time
EST
Temp
°C
App
Temp
°C
Dew
Point
Rel
Hum
%
Delta-T
°C
Wind Press
QNH
hPa
Press
MSL
hPa
Rain
since 9 am
mm
Dir
 
Spd
km/h
Gust
km/h
Spd
kts
Gust
kts
30/11:30pm 15.7 17.2 14.6 93 0.6 ENE 0 0 0 0 1014.9 1014.8 0.0
30/11:00pm 16.1 17.6 14.6 91 0.9 ENE 0 0 0 0 1015.1 1015.0 0.0
30/10:30pm 16.5 18.0 14.7 89 1.0 CALM 0 0 0 0 1015.4 1015.3 0.0
30/10:00pm 17.3 17.8 15.1 87 1.3 E 6 9 3 5 1015.7 1015.6 0.0
30/09:30pm 17.8 18.4 15.2 85 1.5 ESE 6 7 3 4 1016.1 1016.0 0.0
30/09:00pm 17.7 18.2 15.0 84 1.6 SSW 6 7 3 4 1016.4 1016.3 0.0
30/08:30pm 18.7 20.5 15.4 81 1.9 CALM 0 0 0 0 1016.1 1016.0 0.0
30/08:00pm 19.5 19.9 15.4 77 2.4 NE 7 9 4 5 1015.9 1015.8 0.0
30/07:30pm 20.6 20.7 15.4 72 3.1 E 9 13 5 7 1015.8 1015.7 0.0
30/07:00pm 21.2 20.8 15.1 68 3.6 E 11 15 6 8 1015.5 1015.4 0.0
30/06:30pm 22.0 21.8 14.6 63 4.4 ENE 9 13 5 7 1015.2 1015.1 0.0
30/06:00pm 22.9 22.8 13.9 57 5.3 E 7 11 4 6 1015.0 1014.9 0.0
30/05:30pm 24.0 22.4 13.8 53 6.0 ENE 15 20 8 11 1014.6 1014.5 0.0
30/05:00pm 25.1 23.1 13.9 49 6.6 NE 17 26 9 14 1014.3 1014.2 0.0
30/04:30pm 26.4 24.9 14.2 47 7.3 ENE 15 22 8 12 1014.1 1014.0 0.0
30/04:00pm 27.1 24.6 14.1 44 7.8 ENE 20 26 11 14 1014.0 1013.9 0.0
30/03:30pm 28.4 25.8 15.0 44 8.2 NE 22 30 12 16 1013.9 1013.8 0.0
30/03:00pm 29.3 27.0 14.7 41 8.9 NE 20 30 11 16 1013.9 1013.8 0.0
30/02:30pm 29.9 27.6 14.0 37 9.6 NE 19 24 10 13 1014.2 1014.1 0.0
30/02:00pm 30.1 28.1 13.8 37 9.8 NNE 17 24 9 13 1014.6 1014.5 0.0
30/01:30pm 30.3 28.0 13.1 34 10.2 NNE 17 24 9 13 1014.9 1014.8 0.0
30/01:00pm 29.6 26.9 13.4 37 9.6 N 20 28 11 15 1015.5 1015.4 0.0
30/12:30pm 29.0 26.5 12.4 36 9.7 NNE 17 24 9 13 1015.9 1015.8 0.0
30/12:00pm 28.1 27.0 15.4 46 7.8 N 15 20 8 11 1016.4 1016.3 0.0
30/11:30am 27.1 26.8 16.4 52 6.6 N 13 24 7 13 1016.8 1016.7 0.0
30/11:00am 25.9 25.3 15.6 53 6.3 NNE 13 17 7 9 1017.3 1017.2 0.0
30/10:30am 25.2 24.4 15.2 54 6.0 NNE 13 19 7 10 1017.9 1017.9 0.0
30/10:00am 24.2 23.5 15.4 58 5.3 N 13 17 7 9 1018.5 1018.5 0.0
30/09:30am 23.3 23.4 15.6 62 4.6 NNE 9 13 5 7 1019.0 1019.0 0.0
30/09:00am 21.0 21.3 16.0 73 3.0 N 9 11 5 6 1019.2 1019.2 0.0
30/08:30am 18.6 19.3 15.5 82 1.8 N 6 9 3 5 1019.2 1019.2 0.0
30/08:02am 16.5 17.3 15.9 96 0.4 N 6 7 3 4 1019.2 1019.2 0.0
30/08:00am 16.4 17.2 15.8 96 0.4 N 6 7 3 4 1019.2 1019.2 0.0
30/07:51am 15.6 16.5 15.1 97 0.3 N 4 6 2 3 1019.2 1019.2 0.0
30/07:30am 14.5 15.9 14.3 99 0.1 CALM 0 6 0 3 1019.3 1019.3 0.0
30/07:00am 13.3 14.3 13.1 99 0.1 CALM 0 0 0 0 1019.0 1019.0 0.0
30/06:30am 12.3 13.0 12.1 99 0.1 CALM 0 0 0 0 1018.7 1018.7 0.0
30/06:00am 11.3 11.6 11.0 98 0.2 CALM 0 0 0 0 1018.5 1018.5 0.0
30/05:34am 10.9 11.1 10.6 98 0.2 CALM 0 0 0 0 1018.3 1018.3 0.0
30/05:30am 10.8 10.9 10.3 97 0.3 CALM 0 0 0 0 1018.3 1018.3 0.0
30/05:13am 10.8 10.9 10.2 96 0.3 CALM 0 0 0 0 1018.0 1018.0 0.0
30/05:05am 10.7 10.7 9.9 95 0.4 CALM 0 0 0 0 1018.0 1018.0 0.0
30/05:00am 10.8 10.9 10.2 96 0.3 CALM 0 0 0 0 1018.0 1018.0 0.0
30/04:30am 11.3 10.4 10.8 97 0.3 S 6 7 3 4 1017.8 1017.8 0.0
30/04:00am 11.5 11.8 10.9 96 0.3 CALM 0 0 0 0 1017.4 1017.3 0.0
30/03:30am 11.8 12.2 11.3 97 0.3 CALM 0 0 0 0 1017.4 1017.3 0.0
30/03:26am 12.0 12.5 11.5 97 0.3 CALM 0 0 0 0 1017.5 1017.5 0.0
30/03:00am 11.8 12.2 11.2 96 0.3 CALM 0 0 0 0 1017.3 1017.2 0.0
30/02:45am 12.0 12.4 11.2 95 0.4 CALM 0 0 0 0 1017.3 1017.2 0.0
30/02:30am 12.5 13.1 11.9 96 0.3 CALM 0 6 0 3 1017.4 1017.3 0.0
30/02:00am 12.8 12.4 12.3 97 0.3 S 6 9 3 5 1017.6 1017.6 0.0
30/01:30am 12.6 12.8 11.7 94 0.5 SSE 2 7 1 4 1017.6 1017.6 0.0
30/01:00am 13.3 14.1 12.5 95 0.4 CALM 0 0 0 0 1017.6 1017.6 0.0
30/12:30am 13.7 14.6 12.9 95 0.4 CALM 0 0 0 0 1017.9 1017.9 0.0
30/12:00am 14.0 15.0 13.2 95 0.4 SSW 0 0 0 0 1018.1 1018.1 0.0
 
Date/Time
EST
Temp
°C
App
Temp
°C
Dew
Point
Rel
Hum
%
Delta-T
°C
Wind Press
QNH
hPa
Press
MSL
hPa
Rain
since 9 am
mm
Dir
 
Spd
km/h
Gust
km/h
Spd
kts
Gust
kts
29/11:30pm 13.7 13.3 12.4 92 0.7 SSW 6 6 3 3 1018.0 1018.0 0.0
29/11:00pm 14.6 15.3 13.3 92 0.7 S 2 6 1 3 1018.3 1018.3 0.0
29/10:30pm 14.8 14.7 13.3 91 0.8 S 6 9 3 5 1018.4 1018.4 0.0
29/10:00pm 15.3 15.3 13.7 90 0.9 SSW 6 7 3 4 1018.4 1018.4 0.0
29/09:30pm 15.6 15.1 13.8 89 1.0 S 9 11 5 6 1018.4 1018.4 0.0
29/09:00pm 16.0 15.9 14.0 88 1.1 SSW 7 11 4 6 1018.2 1018.2 0.0
29/08:30pm 16.8 16.9 13.9 83 1.6 SSW 6 7 3 4 1018.1 1018.1 0.0
29/08:00pm 19.0 19.2 14.1 73 2.8 ENE 6 9 3 5 1017.8 1017.8 0.0
29/07:30pm 19.4 19.3 13.8 70 3.2 ENE 7 9 4 5 1017.6 1017.6 0.0
29/07:00pm 20.1 20.0 14.0 68 3.5 E 7 9 4 5 1017.3 1017.2 0.0
29/06:30pm 20.7 20.9 14.6 68 3.6 NE 7 13 4 7 1016.9 1016.8 0.0
29/06:00pm 21.7 22.0 14.6 64 4.2 ENE 6 9 3 5 1016.6 1016.5 0.0
29/05:30pm 23.3 22.7 14.6 58 5.2 ENE 11 17 6 9 1016.2 1016.1 0.0
29/05:00pm 24.9 23.7 14.1 51 6.4 NE 13 17 7 9 1015.7 1015.6 0.0
29/04:30pm 26.1 23.9 13.2 44 7.6 NNE 17 20 9 11 1015.4 1015.3 0.0
29/04:00pm 26.7 25.1 13.8 45 7.6 NNE 15 20 8 11 1015.3 1015.2 0.0
29/03:30pm 27.4 25.5 11.8 38 9.0 NE 13 20 7 11 1015.3 1015.2 0.0
29/03:00pm 27.6 25.8 12.0 38 9.0 NNE 13 20 7 11 1015.3 1015.2 0.0
29/02:30pm 27.7 26.5 11.7 37 9.2 NNE 9 15 5 8 1015.5 1015.4 0.0
29/02:00pm 27.5 25.9 11.5 37 9.2 NE 11 19 6 10 1015.7 1015.6 0.0
29/01:30pm 27.0 25.8 11.5 38 8.9 NE 9 19 5 10 1016.1 1016.0 0.0
29/01:00pm 26.6 25.2 12.3 41 8.3 NNE 11 19 6 10 1016.4 1016.3 0.0
29/12:30pm 26.0 24.6 14.5 49 6.9 NNE 15 20 8 11 1017.1 1017.0 0.0
29/12:00pm 25.0 23.6 13.5 48 6.7 NNE 13 20 7 11 1017.5 1017.5 0.0
29/11:30am 24.3 23.5 14.1 53 6.0 N 11 20 6 11 1018.1 1018.1 0.0
29/11:00am 23.3 22.0 13.8 55 5.5 N 13 19 7 10 1018.7 1018.7 0.0
29/10:30am 22.0 19.9 12.5 54 5.4 N 15 20 8 11 1019.0 1019.0 0.0
29/10:00am 21.2 19.4 12.1 56 5.1 N 13 19 7 10 1019.4 1019.4 0.0
29/09:30am 20.2 18.9 12.4 61 4.4 N 11 15 6 8 1019.8 1019.8 0.0
29/09:00am 18.9 17.7 11.7 63 4.0 NW 9 13 5 7 1020.3 1020.3 0.0
29/08:30am 17.4 16.2 11.7 69 3.1 NNW 9 13 5 7 1020.5 1020.5 0.0
29/08:00am 15.2 14.8 12.5 84 1.5 NNE 6 9 3 5 1020.7 1020.7 0.0
29/07:30am 13.2 12.7 11.9 92 0.7 N 6 9 3 5 1020.7 1020.7 0.0
29/07:00am 11.6 10.7 10.7 94 0.5 NNE 6 7 3 4 1021.0 1021.0 0.0
29/06:30am 10.2 10.3 10.0 99 0.1 CALM 0 0 0 0 1020.9 1020.9 0.0
29/06:00am 8.5 8.1 8.2 98 0.1 CALM 0 0 0 0 1020.7 1020.7 0.0
29/05:30am 7.6 6.2 7.2 97 0.2 SSW 4 6 2 3 1020.3 1020.3 0.0
29/05:04am 7.6 7.0 7.2 97 0.2 CALM 0 0 0 0 1020.1 1020.1 0.0
29/05:00am 7.8 7.2 7.4 97 0.2 CALM 0 0 0 0 1020.0 1020.0 0.0
29/04:36am 8.0 7.4 7.2 95 0.4 CALM 0 0 0 0 1019.8 1019.8 0.0
29/04:30am 8.7 8.3 8.3 97 0.2 CALM 0 0 0 0 1019.8 1019.8 0.0
29/04:00am 8.9 8.6 8.5 97 0.2 CALM 0 0 0 0 1019.7 1019.7 0.0
29/03:30am 8.6 7.5 8.3 98 0.1 S 4 7 2 4 1019.9 1019.9 0.0
29/03:00am 8.4 7.8 7.6 95 0.4 CALM 0 0 0 0 1019.8 1019.8 0.0
29/02:30am 9.0 8.3 8.4 96 0.3 S 2 7 1 4 1019.9 1019.9 0.0
29/02:00am 9.0 7.9 8.4 96 0.3 S 4 7 2 4 1020.0 1020.0 0.0
29/01:30am 9.1 8.7 8.3 95 0.4 CALM 0 0 0 0 1020.3 1020.3 0.0
29/01:00am 9.7 9.5 8.9 95 0.4 CALM 0 0 0 0 1020.7 1020.7 0.0
29/12:30am 10.2 10.1 9.4 95 0.4 CALM 0 0 0 0 1021.0 1021.0 0.0
29/12:00am 10.6 10.6 9.7 94 0.5 CALM 0 0 0 0 1021.2 1021.2 0.0
 
Date/Time
EST
Temp
°C
App
Temp
°C
Dew
Point
Rel
Hum
%
Delta-T
°C
Wind Press
QNH
hPa
Press
MSL
hPa
Rain
since 9 am
mm
Dir
 
Spd
km/h
Gust
km/h
Spd
kts
Gust
kts
28/11:30pm 10.7 10.6 9.6 93 0.6 CALM 0 0 0 0 1021.4 1021.4 0.0
28/11:00pm 11.2 10.5 10.1 93 0.6 S 4 6 2 3 1021.6 1021.6 0.0
28/10:30pm 11.2 9.9 10.1 93 0.6 S 7 9 4 5 1021.7 1021.7 0.0
28/10:00pm 11.3 10.6 9.9 91 0.7 SSW 4 6 2 3 1021.7 1021.7 0.0
28/09:30pm 11.7 10.4 10.1 90 0.8 SSW 7 9 4 5 1021.6 1021.6 0.0
28/09:00pm 12.0 10.9 10.1 88 1.0 S 6 7 3 4 1021.5 1021.5 0.0
28/08:30pm 12.8 11.9 10.7 87 1.1 S 6 7 3 4 1021.4 1021.4 0.0
28/08:00pm 13.3 12.2 10.7 84 1.4 S 7 9 4 5 1021.2 1021.2 0.0
28/07:30pm 14.3 14.5 10.7 79 1.9 CALM 0 0 0 0 1021.0 1021.0 0.0
28/07:00pm 15.7 15.9 10.7 72 2.6 CALM 0 0 0 0 1020.6 1020.6 0.0
28/06:30pm 16.5 16.0 10.6 68 3.1 ESE 4 9 2 5 1020.3 1020.3 0.0
28/06:00pm 17.3 16.2 10.7 65 3.5 E 7 11 4 6 1020.0 1020.0 0.0
28/05:30pm 18.4 16.1 10.3 59 4.3 E 13 20 7 11 1019.7 1019.7 0.0
28/05:00pm 19.7 16.6 10.4 55 5.0 E 17 22 9 12 1019.5 1019.5 0.0
28/04:30pm 20.7 17.8 9.6 49 5.9 ENE 15 20 8 11 1019.5 1019.5 0.0
28/04:00pm 21.5 19.3 9.4 46 6.5 E 11 17 6 9 1019.5 1019.5 0.0
28/03:30pm 22.0 19.6 10.2 47 6.4 ESE 13 20 7 11 1019.4 1019.4 0.0
28/03:00pm 22.4 19.3 10.2 46 6.6 E 17 24 9 13 1019.5 1019.5 0.0
28/02:30pm 22.8 20.2 10.6 46 6.7 E 15 22 8 12 1019.7 1019.7 0.0
28/02:00pm 21.7 18.6 8.9 44 6.8 E 15 22 8 12 1020.0 1020.0 0.0
28/01:30pm 22.8 20.2 7.8 38 7.9 SE 11 17 6 9 1020.2 1020.2 0.0
28/01:00pm 23.6 23.0 8.8 39 7.9 WNW 2 9 1 5 1020.4 1020.4 0.0
28/12:30pm 23.3 20.8 8.2 38 8.0 NNE 11 19 6 10 1020.8 1020.8 0.0
28/12:00pm 21.7 19.9 7.2 39 7.4 SE 6 9 3 5 1021.1 1021.1 0.0
28/11:30am 22.7 20.4 7.3 37 8.0 ENE 9 15 5 8 1021.5 1021.5 0.0
28/11:00am 21.7 18.8 8.2 42 7.1 E 13 17 7 9 1021.9 1021.9 0.0
28/10:30am 20.3 18.2 8.3 46 6.3 SSW 9 15 5 8 1022.3 1022.3 0.0
28/10:00am 19.9 18.4 8.6 48 5.9 S 6 11 3 6 1022.7 1022.7 0.0
28/09:30am 20.7 19.1 10.2 51 5.7 E 9 15 5 8 1022.9 1022.9 0.0
28/09:00am 19.8 18.7 10.5 55 5.0 W 7 11 4 6 1022.9 1022.9 0.0
28/08:30am 19.0 18.2 11.6 62 4.1 WSW 7 11 4 6 1023.0 1023.0 0.0
28/08:00am 16.8 16.1 11.5 71 2.9 SSW 6 9 3 5 1023.0 1023.0 0.0
28/07:30am 15.2 14.4 11.8 80 1.8 SW 7 9 4 5 1022.9 1022.9 0.0
28/07:00am 13.6 12.9 11.5 87 1.1 SSW 6 9 3 5 1022.6 1022.6 0.0
28/06:30am 12.0 12.5 11.5 97 0.3 CALM 0 0 0 0 1022.3 1022.3 0.0
28/06:00am 10.3 10.0 10.0 98 0.2 SW 2 6 1 3 1022.0 1022.0 0.0
28/05:30am 10.2 8.8 9.6 96 0.3 SSW 7 9 4 5 1021.8 1021.8 0.0
28/05:00am 10.7 10.3 9.8 94 0.5 SSW 2 6 1 3 1021.7 1021.7 0.0
28/04:30am 11.4 10.0 10.8 96 0.3 S 9 11 5 6 1021.5 1021.5 0.0
28/04:00am 11.4 10.0 10.8 96 0.3 S 9 11 5 6 1021.4 1021.4 0.0
28/03:30am 11.8 11.0 11.2 96 0.3 S 6 11 3 6 1021.4 1021.4 0.0
28/03:00am 12.1 11.1 11.0 93 0.6 S 7 9 4 5 1021.3 1021.3 0.0
28/02:30am 12.8 12.8 11.0 89 0.9 S 2 6 1 3 1021.4 1021.4 0.0
28/02:00am 13.7 13.2 11.9 89 1.0 S 6 7 3 4 1021.7 1021.7 0.0
28/01:30am 14.0 14.6 12.0 88 1.1 CALM 0 0 0 0 1021.9 1021.9 0.0
28/01:00am 14.5 15.0 11.6 83 1.5 CALM 0 0 0 0 1022.0 1022.0 0.0
28/12:30am 15.2 15.9 12.3 83 1.6 CALM 0 0 0 0 1022.0 1022.0 0.0
28/12:00am 15.6 16.2 11.8 78 2.1 CALM 0 0 0 0 1022.3 1022.3 0.0

Other Formats:

Comma delimited format used in spreadsheet applications
http://www.bom.gov.au/fwo/IDN60801/IDN60801.95570.axf

JavaScript Object Notation format (JSON) in row-major order
http://www.bom.gov.au/fwo/IDN60801/IDN60801.95570.json